sensor_id;sensor_type;location;lat;lon;timestamp;P1;durP1;ratioP1;P2;durP2;ratioP2
38785;SDS011;24535;45.508;12.252;2022-12-19T00:01:59;44.17;;;32.92;;
38785;SDS011;24535;45.508;12.252;2022-12-19T00:04:24;48.30;;;35.38;;
38785;SDS011;24535;45.508;12.252;2022-12-19T00:06:50;47.75;;;33.50;;
38785;SDS011;24535;45.508;12.252;2022-12-19T00:12:05;44.13;;;34.60;;
38785;SDS011;24535;45.508;12.252;2022-12-19T00:14:31;43.45;;;33.58;;
38785;SDS011;24535;45.508;12.252;2022-12-19T00:16:56;43.75;;;32.05;;
38785;SDS011;24535;45.508;12.252;2022-12-19T00:19:22;44.75;;;32.85;;
38785;SDS011;24535;45.508;12.252;2022-12-19T00:21:47;46.08;;;34.88;;
38785;SDS011;24535;45.508;12.252;2022-12-19T00:24:13;42.60;;;32.47;;
38785;SDS011;24535;45.508;12.252;2022-12-19T00:26:51;39.10;;;30.80;;
38785;SDS011;24535;45.508;12.252;2022-12-19T00:29:17;43.40;;;32.70;;
38785;SDS011;24535;45.508;12.252;2022-12-19T00:31:42;44.00;;;32.55;;
38785;SDS011;24535;45.508;12.252;2022-12-19T00:34:09;41.65;;;30.02;;
38785;SDS011;24535;45.508;12.252;2022-12-19T00:36:35;45.53;;;33.22;;
38785;SDS011;24535;45.508;12.252;2022-12-19T00:39:00;41.45;;;31.48;;
38785;SDS011;24535;45.508;12.252;2022-12-19T00:41:30;41.30;;;31.10;;
38785;SDS011;24535;45.508;12.252;2022-12-19T00:43:59;42.03;;;31.65;;
38785;SDS011;24535;45.508;12.252;2022-12-19T00:46:27;44.00;;;31.45;;
38785;SDS011;24535;45.508;12.252;2022-12-19T00:48:54;40.47;;;30.48;;
38785;SDS011;24535;45.508;12.252;2022-12-19T00:51:33;41.05;;;30.55;;
38785;SDS011;24535;45.508;12.252;2022-12-19T01:02:07;40.65;;;32.00;;
38785;SDS011;24535;45.508;12.252;2022-12-19T01:04:33;39.78;;;29.45;;
38785;SDS011;24535;45.508;12.252;2022-12-19T01:06:58;42.75;;;29.20;;
38785;SDS011;24535;45.508;12.252;2022-12-19T01:09:24;39.90;;;31.33;;
38785;SDS011;24535;45.508;12.252;2022-12-19T01:14:27;40.20;;;29.67;;
38785;SDS011;24535;45.508;12.252;2022-12-19T01:16:55;37.92;;;29.90;;
38785;SDS011;24535;45.508;12.252;2022-12-19T01:19:21;40.80;;;30.45;;
38785;SDS011;24535;45.508;12.252;2022-12-19T01:22:02;38.80;;;29.05;;
38785;SDS011;24535;45.508;12.252;2022-12-19T01:24:28;47.95;;;31.13;;
38785;SDS011;24535;45.508;12.252;2022-12-19T01:26:53;37.38;;;29.02;;
38785;SDS011;24535;45.508;12.252;2022-12-19T01:29:19;39.28;;;30.17;;
38785;SDS011;24535;45.508;12.252;2022-12-19T01:52:23;37.80;;;28.13;;
38785;SDS011;24535;45.508;12.252;2022-12-19T01:54:49;35.25;;;27.52;;
38785;SDS011;24535;45.508;12.252;2022-12-19T02:00:08;38.15;;;26.98;;
38785;SDS011;24535;45.508;12.252;2022-12-19T02:02:42;38.53;;;28.77;;
38785;SDS011;24535;45.508;12.252;2022-12-19T02:05:13;36.97;;;27.42;;
38785;SDS011;24535;45.508;12.252;2022-12-19T02:07:45;39.60;;;27.85;;
38785;SDS011;24535;45.508;12.252;2022-12-19T02:10:20;40.67;;;29.10;;
38785;SDS011;24535;45.508;12.252;2022-12-19T02:12:46;36.40;;;27.00;;
38785;SDS011;24535;45.508;12.252;2022-12-19T02:17:54;35.67;;;26.98;;
38785;SDS011;24535;45.508;12.252;2022-12-19T02:26:22;38.63;;;27.38;;
38785;SDS011;24535;45.508;12.252;2022-12-19T02:29:20;38.67;;;28.20;;
38785;SDS011;24535;45.508;12.252;2022-12-19T02:43:55;33.17;;;23.63;;
38785;SDS011;24535;45.508;12.252;2022-12-19T02:46:22;35.05;;;26.08;;
38785;SDS011;24535;45.508;12.252;2022-12-19T02:48:49;33.58;;;27.35;;
38785;SDS011;24535;45.508;12.252;2022-12-19T02:54:14;36.35;;;25.77;;
38785;SDS011;24535;45.508;12.252;2022-12-19T03:11:00;37.22;;;28.50;;
38785;SDS011;24535;45.508;12.252;2022-12-19T03:13:45;37.83;;;27.20;;
38785;SDS011;24535;45.508;12.252;2022-12-19T03:17:04;34.58;;;25.60;;
38785;SDS011;24535;45.508;12.252;2022-12-19T03:19:33;35.47;;;26.02;;
38785;SDS011;24535;45.508;12.252;2022-12-19T03:22:11;37.90;;;28.23;;
38785;SDS011;24535;45.508;12.252;2022-12-19T03:24:37;32.53;;;26.35;;
38785;SDS011;24535;45.508;12.252;2022-12-19T03:27:19;35.42;;;26.00;;
38785;SDS011;24535;45.508;12.252;2022-12-19T03:30:03;33.00;;;25.40;;
38785;SDS011;24535;45.508;12.252;2022-12-19T03:32:41;34.17;;;25.17;;
38785;SDS011;24535;45.508;12.252;2022-12-19T03:35:23;35.55;;;25.13;;
38785;SDS011;24535;45.508;12.252;2022-12-19T03:38:02;30.55;;;24.60;;
38785;SDS011;24535;45.508;12.252;2022-12-19T03:40:29;32.60;;;24.95;;
38785;SDS011;24535;45.508;12.252;2022-12-19T03:43:15;31.25;;;23.77;;
38785;SDS011;24535;45.508;12.252;2022-12-19T03:46:50;36.22;;;26.02;;
38785;SDS011;24535;45.508;12.252;2022-12-19T03:49:16;31.23;;;24.70;;
38785;SDS011;24535;45.508;12.252;2022-12-19T03:57:58;34.70;;;25.15;;
38785;SDS011;24535;45.508;12.252;2022-12-19T04:00:46;34.95;;;25.17;;
38785;SDS011;24535;45.508;12.252;2022-12-19T04:03:16;35.13;;;25.02;;
38785;SDS011;24535;45.508;12.252;2022-12-19T04:06:01;32.75;;;24.30;;
38785;SDS011;24535;45.508;12.252;2022-12-19T04:11:19;37.70;;;25.75;;
38785;SDS011;24535;45.508;12.252;2022-12-19T04:13:48;37.42;;;26.48;;
38785;SDS011;24535;45.508;12.252;2022-12-19T04:16:19;35.72;;;25.80;;
38785;SDS011;24535;45.508;12.252;2022-12-19T04:18:57;35.08;;;25.40;;
38785;SDS011;24535;45.508;12.252;2022-12-19T04:21:36;37.72;;;26.45;;
38785;SDS011;24535;45.508;12.252;2022-12-19T04:24:09;32.70;;;24.25;;
38785;SDS011;24535;45.508;12.252;2022-12-19T04:30:01;33.40;;;24.73;;
38785;SDS011;24535;45.508;12.252;2022-12-19T04:32:28;38.65;;;26.23;;
38785;SDS011;24535;45.508;12.252;2022-12-19T04:34:58;32.33;;;24.27;;
38785;SDS011;24535;45.508;12.252;2022-12-19T04:37:23;33.03;;;24.88;;
38785;SDS011;24535;45.508;12.252;2022-12-19T04:39:49;29.23;;;22.42;;
38785;SDS011;24535;45.508;12.252;2022-12-19T04:42:21;31.05;;;24.42;;
38785;SDS011;24535;45.508;12.252;2022-12-19T04:50:59;29.67;;;21.83;;
38785;SDS011;24535;45.508;12.252;2022-12-19T04:53:27;36.08;;;24.40;;
38785;SDS011;24535;45.508;12.252;2022-12-19T04:56:02;32.55;;;23.63;;
38785;SDS011;24535;45.508;12.252;2022-12-19T04:58:29;32.72;;;24.33;;
38785;SDS011;24535;45.508;12.252;2022-12-19T05:01:10;33.85;;;24.08;;
38785;SDS011;24535;45.508;12.252;2022-12-19T05:12:47;30.35;;;23.83;;
38785;SDS011;24535;45.508;12.252;2022-12-19T05:15:30;34.05;;;25.15;;
38785;SDS011;24535;45.508;12.252;2022-12-19T05:21:06;27.85;;;22.08;;
38785;SDS011;24535;45.508;12.252;2022-12-19T05:27:18;28.60;;;22.52;;
38785;SDS011;24535;45.508;12.252;2022-12-19T05:30:28;34.83;;;24.27;;
38785;SDS011;24535;45.508;12.252;2022-12-19T05:33:14;37.00;;;24.90;;
38785;SDS011;24535;45.508;12.252;2022-12-19T05:35:45;34.10;;;24.10;;
38785;SDS011;24535;45.508;12.252;2022-12-19T05:38:15;31.00;;;22.48;;
38785;SDS011;24535;45.508;12.252;2022-12-19T05:41:04;26.67;;;20.38;;
38785;SDS011;24535;45.508;12.252;2022-12-19T05:46:59;29.08;;;22.25;;
38785;SDS011;24535;45.508;12.252;2022-12-19T05:49:25;29.45;;;21.70;;
38785;SDS011;24535;45.508;12.252;2022-12-19T05:51:56;32.53;;;23.25;;
38785;SDS011;24535;45.508;12.252;2022-12-19T05:57:48;28.77;;;23.13;;
38785;SDS011;24535;45.508;12.252;2022-12-19T06:00:26;30.17;;;22.42;;
38785;SDS011;24535;45.508;12.252;2022-12-19T06:03:30;34.75;;;24.30;;
38785;SDS011;24535;45.508;12.252;2022-12-19T06:05:55;30.85;;;23.52;;
38785;SDS011;24535;45.508;12.252;2022-12-19T06:08:21;32.83;;;23.23;;
38785;SDS011;24535;45.508;12.252;2022-12-19T06:20:19;30.75;;;23.90;;
38785;SDS011;24535;45.508;12.252;2022-12-19T06:25:56;28.25;;;23.40;;
38785;SDS011;24535;45.508;12.252;2022-12-19T06:28:23;29.95;;;23.70;;
38785;SDS011;24535;45.508;12.252;2022-12-19T06:31:09;29.73;;;22.17;;
38785;SDS011;24535;45.508;12.252;2022-12-19T06:37:04;30.42;;;22.15;;
38785;SDS011;24535;45.508;12.252;2022-12-19T06:39:29;29.40;;;21.58;;
38785;SDS011;24535;45.508;12.252;2022-12-19T06:41:55;28.80;;;22.65;;
38785;SDS011;24535;45.508;12.252;2022-12-19T06:44:45;29.83;;;22.50;;
38785;SDS011;24535;45.508;12.252;2022-12-19T06:47:10;28.20;;;19.88;;
38785;SDS011;24535;45.508;12.252;2022-12-19T06:49:48;27.75;;;21.80;;
38785;SDS011;24535;45.508;12.252;2022-12-19T06:52:17;30.95;;;22.55;;
38785;SDS011;24535;45.508;12.252;2022-12-19T06:54:45;32.47;;;22.38;;
38785;SDS011;24535;45.508;12.252;2022-12-19T06:57:32;29.23;;;22.17;;
38785;SDS011;24535;45.508;12.252;2022-12-19T07:06:40;32.25;;;22.10;;
38785;SDS011;24535;45.508;12.252;2022-12-19T07:40:05;30.83;;;22.70;;
38785;SDS011;24535;45.508;12.252;2022-12-19T07:42:49;30.42;;;23.42;;
38785;SDS011;24535;45.508;12.252;2022-12-19T07:51:01;31.73;;;22.90;;
38785;SDS011;24535;45.508;12.252;2022-12-19T07:53:28;28.60;;;22.83;;
38785;SDS011;24535;45.508;12.252;2022-12-19T07:55:57;30.05;;;23.27;;
38785;SDS011;24535;45.508;12.252;2022-12-19T08:13:40;37.47;;;23.90;;
38785;SDS011;24535;45.508;12.252;2022-12-19T08:16:06;31.45;;;21.90;;
38785;SDS011;24535;45.508;12.252;2022-12-19T08:18:32;30.75;;;21.67;;
38785;SDS011;24535;45.508;12.252;2022-12-19T08:24:19;28.13;;;20.50;;
38785;SDS011;24535;45.508;12.252;2022-12-19T08:27:00;22.95;;;18.48;;
38785;SDS011;24535;45.508;12.252;2022-12-19T08:32:48;33.03;;;21.50;;
38785;SDS011;24535;45.508;12.252;2022-12-19T08:35:20;29.40;;;21.10;;
38785;SDS011;24535;45.508;12.252;2022-12-19T08:37:46;27.27;;;20.90;;
38785;SDS011;24535;45.508;12.252;2022-12-19T08:43:02;27.05;;;20.02;;
38785;SDS011;24535;45.508;12.252;2022-12-19T08:45:30;31.02;;;20.92;;
38785;SDS011;24535;45.508;12.252;2022-12-19T11:31:15;21.92;;;16.70;;
38785;SDS011;24535;45.508;12.252;2022-12-19T11:39:49;18.02;;;14.57;;
38785;SDS011;24535;45.508;12.252;2022-12-19T13:35:43;23.52;;;16.63;;
38785;SDS011;24535;45.508;12.252;2022-12-19T13:44:18;16.20;;;12.32;;
38785;SDS011;24535;45.508;12.252;2022-12-19T13:50:00;19.00;;;14.73;;
38785;SDS011;24535;45.508;12.252;2022-12-19T13:56:16;24.85;;;18.38;;
38785;SDS011;24535;45.508;12.252;2022-12-19T13:58:59;22.08;;;16.75;;
38785;SDS011;24535;45.508;12.252;2022-12-19T14:01:27;20.73;;;15.25;;
38785;SDS011;24535;45.508;12.252;2022-12-19T14:17:18;21.73;;;16.67;;
38785;SDS011;24535;45.508;12.252;2022-12-19T15:51:28;36.80;;;24.33;;
38785;SDS011;24535;45.508;12.252;2022-12-19T16:02:38;32.97;;;22.73;;
38785;SDS011;24535;45.508;12.252;2022-12-19T16:05:03;35.85;;;25.08;;
38785;SDS011;24535;45.508;12.252;2022-12-19T16:07:29;32.63;;;24.05;;
38785;SDS011;24535;45.508;12.252;2022-12-19T16:20:52;31.95;;;22.40;;
38785;SDS011;24535;45.508;12.252;2022-12-19T16:23:26;30.90;;;23.50;;
38785;SDS011;24535;45.508;12.252;2022-12-19T16:35:52;35.13;;;23.13;;
38785;SDS011;24535;45.508;12.252;2022-12-19T16:38:51;34.88;;;23.17;;
38785;SDS011;24535;45.508;12.252;2022-12-19T17:09:22;41.83;;;30.42;;
38785;SDS011;24535;45.508;12.252;2022-12-19T17:15:06;44.05;;;31.42;;
38785;SDS011;24535;45.508;12.252;2022-12-19T17:41:03;51.67;;;36.67;;
38785;SDS011;24535;45.508;12.252;2022-12-19T17:43:36;48.80;;;35.17;;
38785;SDS011;24535;45.508;12.252;2022-12-19T17:46:02;51.13;;;37.25;;
38785;SDS011;24535;45.508;12.252;2022-12-19T17:48:29;50.63;;;35.67;;
38785;SDS011;24535;45.508;12.252;2022-12-19T18:06:54;52.38;;;40.72;;
38785;SDS011;24535;45.508;12.252;2022-12-19T18:09:23;61.00;;;41.40;;
38785;SDS011;24535;45.508;12.252;2022-12-19T18:11:54;63.28;;;42.90;;
38785;SDS011;24535;45.508;12.252;2022-12-19T18:17:12;58.65;;;41.20;;
38785;SDS011;24535;45.508;12.252;2022-12-19T18:19:56;61.75;;;41.13;;
38785;SDS011;24535;45.508;12.252;2022-12-19T18:22:31;51.72;;;37.92;;
38785;SDS011;24535;45.508;12.252;2022-12-19T18:24:56;49.58;;;38.78;;
38785;SDS011;24535;45.508;12.252;2022-12-19T18:30:14;56.20;;;40.05;;
38785;SDS011;24535;45.508;12.252;2022-12-19T18:33:19;57.47;;;41.83;;
38785;SDS011;24535;45.508;12.252;2022-12-19T18:36:27;52.80;;;39.53;;
38785;SDS011;24535;45.508;12.252;2022-12-19T18:38:56;57.97;;;41.03;;
38785;SDS011;24535;45.508;12.252;2022-12-19T18:41:22;55.30;;;40.13;;
38785;SDS011;24535;45.508;12.252;2022-12-19T18:43:48;63.33;;;40.38;;
38785;SDS011;24535;45.508;12.252;2022-12-19T18:46:15;55.70;;;37.92;;
38785;SDS011;24535;45.508;12.252;2022-12-19T18:48:58;60.83;;;36.80;;
38785;SDS011;24535;45.508;12.252;2022-12-19T18:51:30;52.17;;;36.78;;
38785;SDS011;24535;45.508;12.252;2022-12-19T18:53:56;63.25;;;43.33;;
38785;SDS011;24535;45.508;12.252;2022-12-19T18:56:22;60.60;;;44.90;;
38785;SDS011;24535;45.508;12.252;2022-12-19T18:58:47;68.47;;;44.80;;
38785;SDS011;24535;45.508;12.252;2022-12-19T19:01:19;57.85;;;42.55;;
38785;SDS011;24535;45.508;12.252;2022-12-19T19:03:50;58.78;;;43.50;;
38785;SDS011;24535;45.508;12.252;2022-12-19T19:12:22;53.20;;;39.30;;
38785;SDS011;24535;45.508;12.252;2022-12-19T19:14:48;60.67;;;43.05;;
38785;SDS011;24535;45.508;12.252;2022-12-19T19:26:38;59.90;;;45.63;;
38785;SDS011;24535;45.508;12.252;2022-12-19T19:29:24;65.47;;;49.47;;
38785;SDS011;24535;45.508;12.252;2022-12-19T19:34:44;65.38;;;46.25;;
38785;SDS011;24535;45.508;12.252;2022-12-19T19:39:44;64.60;;;44.83;;
38785;SDS011;24535;45.508;12.252;2022-12-19T19:42:23;61.88;;;44.10;;
38785;SDS011;24535;45.508;12.252;2022-12-19T19:45:10;58.35;;;43.10;;
38785;SDS011;24535;45.508;12.252;2022-12-19T19:53:23;63.08;;;45.55;;
38785;SDS011;24535;45.508;12.252;2022-12-19T19:55:53;63.28;;;45.85;;
38785;SDS011;24535;45.508;12.252;2022-12-19T19:58:38;60.58;;;46.97;;
38785;SDS011;24535;45.508;12.252;2022-12-19T20:01:10;66.50;;;50.17;;
38785;SDS011;24535;45.508;12.252;2022-12-19T20:03:37;67.65;;;54.30;;
38785;SDS011;24535;45.508;12.252;2022-12-19T20:06:05;69.32;;;55.92;;
38785;SDS011;24535;45.508;12.252;2022-12-19T20:08:31;71.85;;;52.30;;
38785;SDS011;24535;45.508;12.252;2022-12-19T20:11:06;72.25;;;53.55;;
38785;SDS011;24535;45.508;12.252;2022-12-19T20:13:50;66.68;;;50.88;;
38785;SDS011;24535;45.508;12.252;2022-12-19T20:16:25;74.10;;;56.15;;
38785;SDS011;24535;45.508;12.252;2022-12-19T20:18:50;71.15;;;55.78;;
38785;SDS011;24535;45.508;12.252;2022-12-19T20:31:59;73.22;;;53.13;;
38785;SDS011;24535;45.508;12.252;2022-12-19T20:34:28;67.13;;;48.92;;
38785;SDS011;24535;45.508;12.252;2022-12-19T20:53:20;78.85;;;57.28;;
38785;SDS011;24535;45.508;12.252;2022-12-19T20:55:57;82.93;;;59.47;;
38785;SDS011;24535;45.508;12.252;2022-12-19T20:58:34;81.00;;;56.53;;
38785;SDS011;24535;45.508;12.252;2022-12-19T21:01:20;77.18;;;56.28;;
38785;SDS011;24535;45.508;12.252;2022-12-19T21:03:48;78.72;;;57.47;;
38785;SDS011;24535;45.508;12.252;2022-12-19T21:26:06;78.68;;;55.75;;
38785;SDS011;24535;45.508;12.252;2022-12-19T21:28:37;80.50;;;56.72;;
38785;SDS011;24535;45.508;12.252;2022-12-19T21:33:49;74.85;;;55.75;;
38785;SDS011;24535;45.508;12.252;2022-12-19T21:49:47;79.38;;;55.20;;
38785;SDS011;24535;45.508;12.252;2022-12-19T21:52:13;74.53;;;51.38;;
38785;SDS011;24535;45.508;12.252;2022-12-19T21:54:38;78.70;;;55.70;;
38785;SDS011;24535;45.508;12.252;2022-12-19T22:05:50;75.13;;;55.70;;
38785;SDS011;24535;45.508;12.252;2022-12-19T22:08:27;80.82;;;58.22;;
38785;SDS011;24535;45.508;12.252;2022-12-19T22:12:09;79.15;;;57.67;;
38785;SDS011;24535;45.508;12.252;2022-12-19T22:15:13;76.68;;;57.50;;
38785;SDS011;24535;45.508;12.252;2022-12-19T22:17:46;78.80;;;58.88;;
38785;SDS011;24535;45.508;12.252;2022-12-19T22:25:32;78.53;;;62.63;;
38785;SDS011;24535;45.508;12.252;2022-12-19T22:46:28;75.30;;;60.46;;
38785;SDS011;24535;45.508;12.252;2022-12-19T22:48:56;77.97;;;60.60;;
38785;SDS011;24535;45.508;12.252;2022-12-19T22:53:48;84.20;;;57.68;;
38785;SDS011;24535;45.508;12.252;2022-12-19T22:56:29;77.90;;;58.17;;
38785;SDS011;24535;45.508;12.252;2022-12-19T22:59:32;78.78;;;58.72;;
38785;SDS011;24535;45.508;12.252;2022-12-19T23:05:33;78.80;;;58.58;;
38785;SDS011;24535;45.508;12.252;2022-12-19T23:08:03;84.32;;;61.83;;
38785;SDS011;24535;45.508;12.252;2022-12-19T23:10:41;83.72;;;62.88;;
38785;SDS011;24535;45.508;12.252;2022-12-19T23:13:07;78.07;;;62.33;;
38785;SDS011;24535;45.508;12.252;2022-12-19T23:25:02;92.75;;;67.10;;
38785;SDS011;24535;45.508;12.252;2022-12-19T23:27:38;85.57;;;65.40;;
38785;SDS011;24535;45.508;12.252;2022-12-19T23:30:04;83.57;;;64.97;;
38785;SDS011;24535;45.508;12.252;2022-12-19T23:32:30;84.20;;;62.60;;
38785;SDS011;24535;45.508;12.252;2022-12-19T23:34:56;89.13;;;63.53;;
38785;SDS011;24535;45.508;12.252;2022-12-19T23:37:30;86.65;;;67.07;;
38785;SDS011;24535;45.508;12.252;2022-12-19T23:39:56;84.95;;;63.85;;
38785;SDS011;24535;45.508;12.252;2022-12-19T23:42:21;91.82;;;65.03;;
